< < Back
Terminal Aerodrome Forecast


Current Version              Previous Versions:   1  2  3  4  5  6  7  8  9  

Terminal Aerodrome Forecast

035
FTUS42 KGSP 011900 AAA
TAFAVL
TAF AMD
KAVL 011935Z 0120/0218 19006KT P6SM VCSH SCT050
      TEMPO 0120/0122 VRB15G25KT 3SM TSRA OVC040CB
     FM020000 00000KT P6SM SCT060
     FM020900 00000KT 2SM BR BKN004
     FM021200 00000KT 1SM BR BKN003
     FM021400 31004KT 5SM BR SCT110
     FM021500 32004KT P6SM FEW045=

Latest METAR

374
SAUS70 KWBC 021000 RRL
MTRAVL
METAR KAVL 020954Z AUTO 33003KT 10SM R34/1800VP6000FT CLR 19/18 A3017
RMK AO2 SLP191 T01890178


USA.gov is the U.S. government's official web portal to all federal, state and local government web resources and services.